Terminal Aerodrome Forecast
Issued by NWS

Home | Current Version | Previous Version | Text Only | Print | Product List | Glossary On
Versions: 1 2 3 4 5 6 7 8 9 10 11 12 13 14 15
000
FTUS43 KOAX 211135
TAFBFF
TAF
KBFF 211135Z 2112/2212 VRB05KT P6SM SCT150 SCT250
     FM211800 27018G28KT P6SM SCT050 BKN120
     FM220000 30015G25KT 6SM -RASN BKN030 OVC050=

USA.gov is the U.S. government's official web portal to all federal, state and local government web resources and services.